Time;durP1;ratioP1;P1;durP2;ratioP2;P2;SDS_P1;SDS_P2;PMS_P1;PMS_P2;Temp;Humidity;BMP_temperature;BMP_pressure;BME280_temperature;BME280_humidity;BME280_pressure;Samples;Min_cycle;Max_cycle;Signal;HPM_P1;HPM_P2
2023/03/02 00:08:46;;;;;;;9.68;2.28;;;;;;;21.35;37.43;101441.50;21069615;28;20032;-67
2023/03/02 00:18:47;;;;;;;8.63;1.85;;;;;;;21.36;37.78;101435.69;21072611;28;20490;-68
2023/03/02 00:28:49;;;;;;;8.55;2.00;;;;;;;21.25;37.84;101408.88;21081026;28;20172;-65
2023/03/02 00:38:51;;;;;;;3.40;1.83;;;;;;;21.36;38.01;101407.03;21080433;28;20052;-66
2023/03/02 00:48:52;;;;;;;4.70;1.98;;;;;;;21.38;37.94;101363.03;21080356;28;20039;-67
2023/03/02 00:58:56;;;;;;;3.83;1.50;;;;;;;21.45;37.60;101360.84;21078878;28;20089;-68
2023/03/02 01:08:57;;;;;;;15.68;2.78;;;;;;;21.46;37.86;101348.59;21049316;28;20036;-68
2023/03/02 01:18:59;;;;;;;7.93;2.08;;;;;;;21.50;37.70;101333.84;21080377;28;20043;-67
2023/03/02 01:29:03;;;;;;;6.78;1.70;;;;;;;21.44;37.80;101309.03;21076931;28;20036;-69
2023/03/02 01:39:04;;;;;;;5.38;1.67;;;;;;;21.45;37.56;101303.19;21082005;28;20043;-70
2023/03/02 01:49:11;;;;;;;6.43;1.60;;;;;;;21.47;37.45;101297.34;21077058;28;20036;-69
2023/03/02 01:59:17;;;;;;;3.97;1.55;;;;;;;21.45;37.45;101291.22;21089053;28;20466;-69
2023/03/02 02:09:21;;;;;;;5.20;1.88;;;;;;;21.49;37.28;101270.91;21078602;28;20040;-69
2023/03/02 02:19:32;;;;;;;1.98;1.23;;;;;;;21.60;36.97;101266.19;21105974;28;20048;-68
2023/03/02 02:29:37;;;;;;;5.22;1.40;;;;;;;21.69;36.60;101231.09;21077929;28;20044;-69
2023/03/02 02:39:45;;;;;;;3.00;1.25;;;;;;;21.50;36.79;101171.50;21067946;28;20062;-70
2023/03/02 02:49:51;;;;;;;4.55;1.27;;;;;;;21.75;36.48;101167.84;21075786;28;20360;-69
2023/03/02 03:00:00;;;;;;;3.03;1.50;;;;;;;21.77;36.41;101160.91;21022999;28;20496;-70
2023/03/02 03:10:10;;;;;;;3.33;1.20;;;;;;;21.81;36.49;101166.75;20992124;28;20553;-69
2023/03/02 03:20:15;;;;;;;4.50;1.45;;;;;;;21.81;36.08;101177.88;21093422;28;20398;-69
2023/03/02 03:30:17;;;;;;;4.05;1.38;;;;;;;21.79;36.47;101158.66;21115208;28;20043;-69
2023/03/02 03:40:18;;;;;;;1.98;1.30;;;;;;;21.91;36.06;101104.59;21137151;28;20060;-69
2023/03/02 03:50:20;;;;;;;2.40;1.30;;;;;;;21.87;36.12;101114.63;21159194;28;20041;-70
2023/03/02 04:00:22;;;;;;;3.35;1.90;;;;;;;21.87;36.00;101115.47;21146940;28;20063;-69
2023/03/02 04:10:23;;;;;;;3.88;1.20;;;;;;;21.87;36.23;101120.19;21091736;28;20487;-66
2023/03/02 04:20:26;;;;;;;2.92;1.30;;;;;;;21.87;36.31;101093.16;21086034;28;20040;-66
2023/03/02 04:30:32;;;;;;;7.35;1.55;;;;;;;21.89;36.51;101093.72;21077797;28;20101;-67
2023/03/02 04:40:33;;;;;;;8.55;2.65;;;;;;;21.95;38.17;101038.81;21085934;28;20055;-67
2023/03/02 04:50:34;;;;;;;11.80;3.20;;;;;;;22.09;43.45;101025.94;21087049;28;20051;-66
2023/03/02 05:00:36;;;;;;;12.55;3.03;;;;;;;22.02;42.04;100994.75;21062561;28;20040;-66
2023/03/02 05:10:37;;;;;;;8.45;2.35;;;;;;;22.16;40.95;100989.41;21082259;28;20036;-66
2023/03/02 05:20:39;;;;;;;4.90;2.35;;;;;;;22.24;40.08;100950.59;21077141;28;20051;-66
2023/03/02 05:30:40;;;;;;;5.50;1.80;;;;;;;22.13;39.77;100923.09;21083206;28;20043;-67
2023/03/02 05:40:42;;;;;;;7.07;2.13;;;;;;;22.24;39.19;100942.25;21079188;28;20028;-66
2023/03/02 05:50:44;;;;;;;6.90;1.92;;;;;;;22.13;38.89;100920.28;21080444;28;20020;-65
2023/03/02 06:00:46;;;;;;;3.92;1.70;;;;;;;22.24;38.55;100947.81;21066596;28;20048;-66
2023/03/02 06:10:49;;;;;;;3.35;1.38;;;;;;;22.23;38.13;100870.91;21078119;28;20563;-66
2023/03/02 06:20:50;;;;;;;5.70;1.50;;;;;;;22.22;38.33;100863.66;21072710;28;20040;-66
2023/03/02 06:30:55;;;;;;;2.85;1.60;;;;;;;22.21;38.12;100836.06;21049693;28;20036;-67
2023/03/02 06:41:02;;;;;;;3.17;1.52;;;;;;;22.19;38.13;100828.00;21076487;28;20047;-67
2023/03/02 06:51:06;;;;;;;3.08;1.20;;;;;;;22.17;37.77;100782.84;21073840;28;20437;-67
2023/03/02 07:01:08;;;;;;;3.78;1.55;;;;;;;22.15;37.26;100737.75;21069873;28;20044;-66
2023/03/02 07:11:11;;;;;;;3.47;1.50;;;;;;;22.14;36.78;100707.41;21076305;28;20552;-67
2023/03/02 07:21:12;;;;;;;3.72;1.42;;;;;;;22.13;36.94;100677.84;21067343;28;20047;-66
2023/03/02 07:31:16;;;;;;;3.45;1.42;;;;;;;22.09;36.62;100660.88;21081938;28;20051;-66
2023/03/02 07:41:18;;;;;;;2.72;1.50;;;;;;;22.08;36.68;100671.19;21090855;28;20024;-66
2023/03/02 07:51:19;;;;;;;4.90;1.60;;;;;;;22.03;36.53;100650.88;21090897;28;20604;-66
2023/03/02 08:01:23;;;;;;;3.78;1.67;;;;;;;22.04;36.21;100631.09;21090523;28;20040;-68
2023/03/02 08:11:24;;;;;;;2.42;1.40;;;;;;;21.86;36.29;100631.03;21083600;28;20036;-68
2023/03/02 08:21:29;;;;;;;3.95;1.55;;;;;;;22.00;36.18;100640.34;21089186;28;20036;-67
2023/03/02 08:31:30;;;;;;;2.13;1.35;;;;;;;21.99;36.26;100638.66;21073579;28;20441;-66
2023/03/02 08:41:33;;;;;;;2.22;1.60;;;;;;;21.94;36.24;100652.66;21083942;28;20097;-66
2023/03/02 08:51:34;;;;;;;4.28;1.73;;;;;;;21.96;36.17;100658.78;21084973;28;20040;-67
2023/03/02 09:01:37;;;;;;;3.50;1.85;;;;;;;21.94;36.21;100663.81;21085020;28;20097;-66
2023/03/02 09:11:41;;;;;;;6.15;2.08;;;;;;;21.90;36.31;100624.59;21084683;28;20044;-67
2023/03/02 09:21:42;;;;;;;4.13;1.70;;;;;;;21.90;36.33;100584.72;21083988;28;20036;-66
2023/03/02 09:31:43;;;;;;;4.65;2.15;;;;;;;21.88;36.24;100615.69;21083756;28;20036;-66
2023/03/02 09:42:12;;;;;;;2.95;1.80;;;;;;;21.72;36.35;100584.38;21082390;28;20040;-66
2023/03/02 09:52:39;;;;;;;4.60;2.20;;;;;;;21.80;36.06;100561.44;21048484;28;20043;-66
2023/03/02 10:02:57;;;;;;;5.28;2.15;;;;;;;21.79;36.27;100548.63;21077799;28;20095;-66
2023/03/02 10:13:19;;;;;;;6.47;2.13;;;;;;;21.77;35.90;100566.78;21079964;28;20055;-67
2023/03/02 10:23:32;;;;;;;3.47;2.03;;;;;;;21.79;35.82;100506.03;21078792;28;20048;-66
2023/03/02 10:33:38;;;;;;;4.18;1.88;;;;;;;21.65;36.11;100489.22;21075854;28;20036;-65
2023/03/02 10:44:05;;;;;;;2.75;1.75;;;;;;;21.76;36.06;100545.63;21074477;28;20094;-66
2023/03/02 10:54:12;;;;;;;3.13;1.88;;;;;;;21.76;36.08;100585.47;21076462;28;20043;-67
2023/03/02 11:04:15;;;;;;;5.30;2.58;;;;;;;21.63;35.83;100527.69;21076334;28;20040;-66
2023/03/02 11:14:16;;;;;;;7.65;2.65;;;;;;;21.76;35.77;100523.34;21070469;28;20105;-67
2023/03/02 11:24:35;;;;;;;7.28;2.83;;;;;;;21.60;35.69;100491.25;21074895;28;20330;-67
2023/03/02 11:34:49;;;;;;;7.18;2.90;;;;;;;21.67;35.93;100494.47;21072550;28;20048;-66
2023/03/02 11:44:50;;;;;;;6.93;3.00;;;;;;;21.78;35.75;100521.09;21074658;28;20032;-67
2023/03/02 11:54:56;;;;;;;8.63;3.42;;;;;;;21.77;35.76;100514.69;21069755;28;20044;-66
2023/03/02 12:05:21;;;;;;;6.85;3.17;;;;;;;21.86;35.86;100539.13;21060772;28;20040;-66
2023/03/02 12:15:28;;;;;;;8.30;3.85;;;;;;;21.87;35.92;100519.31;21062904;28;20556;-68
2023/03/02 12:25:38;;;;;;;8.45;3.15;;;;;;;21.78;36.04;100471.78;21078953;28;20495;-66
2023/03/02 12:35:40;;;;;;;6.28;4.15;;;;;;;21.71;36.09;100415.63;21083254;28;20048;-66
2023/03/02 12:46:18;;;;;;;7.28;3.75;;;;;;;21.83;36.21;100324.09;21075976;28;20086;-65
2023/03/02 12:56:27;;;;;;;5.28;3.60;;;;;;;21.80;36.13;100285.69;21072656;28;20036;-67
2023/03/02 13:06:31;;;;;;;5.13;3.22;;;;;;;21.92;36.66;100348.50;21085423;28;20032;-67
2023/03/02 13:16:35;;;;;;;9.20;3.63;;;;;;;21.76;36.33;100331.16;21078230;28;20356;-66
2023/03/02 13:26:38;;;;;;;9.48;4.05;;;;;;;21.88;36.86;100376.13;21082328;28;20051;-68
2023/03/02 13:36:43;;;;;;;6.85;3.85;;;;;;;21.92;36.75;100399.47;21081994;28;20044;-68
2023/03/02 13:46:44;;;;;;;10.15;4.55;;;;;;;21.87;36.65;100432.97;21075523;28;20048;-67
2023/03/02 13:56:46;;;;;;;8.38;3.75;;;;;;;21.92;36.95;100437.63;21074834;28;20499;-67
2023/03/02 14:06:52;;;;;;;8.85;4.68;;;;;;;21.92;36.88;100432.06;21067203;28;20044;-69
2023/03/02 14:16:53;;;;;;;12.65;4.70;;;;;;;21.93;37.03;100403.06;21077221;28;20039;-69
2023/03/02 14:27:01;;;;;;;10.07;4.03;;;;;;;21.76;37.23;100357.09;21078511;28;20089;-69
2023/03/02 14:37:16;;;;;;;9.40;4.78;;;;;;;21.90;37.20;100384.16;21078340;28;20092;-68
2023/03/02 14:47:18;;;;;;;7.80;4.32;;;;;;;21.90;37.31;100381.38;21077009;28;20071;-69
2023/03/02 14:57:24;;;;;;;8.18;3.92;;;;;;;21.91;37.38;100371.91;21077251;28;20044;-68
2023/03/02 15:07:26;;;;;;;8.35;4.13;;;;;;;21.90;37.49;100328.44;21076318;28;20086;-68
2023/03/02 15:17:28;;;;;;;7.80;4.10;;;;;;;21.87;37.48;100362.50;21076962;28;20047;-68
2023/03/02 15:27:29;;;;;;;7.50;4.38;;;;;;;21.77;37.48;100380.19;21074962;28;20089;-67
2023/03/02 15:37:31;;;;;;;8.85;4.30;;;;;;;21.69;37.60;100356.63;21075344;28;20360;-68
2023/03/02 15:47:32;;;;;;;8.82;4.30;;;;;;;21.72;37.89;100349.63;21074692;28;20028;-68
2023/03/02 15:57:42;;;;;;;9.32;3.80;;;;;;;21.64;37.61;100365.03;21083347;28;20044;-69
2023/03/02 16:07:47;;;;;;;9.15;4.05;;;;;;;21.63;38.02;100363.41;21090188;28;20051;-68
2023/03/02 16:17:48;;;;;;;8.40;4.30;;;;;;;21.60;38.04;100358.41;21089667;28;20036;-69
2023/03/02 16:27:52;;;;;;;9.05;4.78;;;;;;;21.48;37.85;100332.97;21087829;28;20047;-67
2023/03/02 16:37:54;;;;;;;6.25;3.90;;;;;;;21.54;38.23;100370.75;21087093;28;20031;-67
2023/03/02 16:47:58;;;;;;;9.00;4.45;;;;;;;21.51;38.05;100382.47;21085417;28;20036;-69
2023/03/02 16:57:59;;;;;;;6.03;3.95;;;;;;;21.51;38.00;100366.59;21085134;28;20051;-68
2023/03/02 17:08:01;;;;;;;5.68;4.05;;;;;;;21.40;37.83;100372.63;21084207;28;20040;-68
2023/03/02 17:18:03;;;;;;;6.40;4.15;;;;;;;21.49;37.94;100368.06;21084585;28;20044;-67
2023/03/02 17:28:04;;;;;;;5.63;4.00;;;;;;;21.47;38.20;100387.81;21083673;28;20047;-68
2023/03/02 17:38:06;;;;;;;7.38;4.20;;;;;;;21.48;38.23;100394.19;21082953;28;20475;-68
2023/03/02 17:48:12;;;;;;;5.18;3.95;;;;;;;21.46;37.94;100390.91;21081340;28;20468;-68
2023/03/02 17:58:14;;;;;;;6.28;3.95;;;;;;;21.42;38.28;100373.13;21080964;28;20441;-68
2023/03/02 18:08:18;;;;;;;5.53;4.25;;;;;;;21.45;38.16;100378.13;21080305;28;20044;-68
2023/03/02 18:18:19;;;;;;;4.97;3.70;;;;;;;21.45;38.11;100380.91;21079358;28;20499;-68
2023/03/02 18:28:21;;;;;;;5.60;3.65;;;;;;;21.38;38.43;100349.81;21079145;28;20048;-68
2023/03/02 18:38:30;;;;;;;3.75;3.17;;;;;;;21.40;38.05;100401.28;21077800;28;20044;-68
2023/03/02 18:48:32;;;;;;;5.95;3.97;;;;;;;21.38;38.07;100389.59;21077495;28;20040;-68
2023/03/02 18:58:34;;;;;;;4.65;4.07;;;;;;;21.41;38.41;100394.59;21076913;28;20127;-68
2023/03/02 19:08:38;;;;;;;5.82;3.90;;;;;;;21.40;38.24;100379.00;21076427;28;20101;-68
2023/03/02 19:18:39;;;;;;;4.70;3.67;;;;;;;21.35;38.26;100361.53;21075916;28;20059;-68
2023/03/02 19:28:41;;;;;;;4.75;4.22;;;;;;;21.36;38.44;100368.78;21078476;28;20552;-67
2023/03/02 19:38:43;;;;;;;4.38;3.22;;;;;;;21.37;38.18;100359.28;21092558;28;20512;-67
2023/03/02 19:48:44;;;;;;;4.65;4.07;;;;;;;21.35;38.07;100355.97;21091341;28;20047;-68
2023/03/02 19:58:48;;;;;;;5.85;3.80;;;;;;;21.34;38.17;100357.09;21085859;28;20047;-67
2023/03/02 20:08:49;;;;;;;5.13;3.95;;;;;;;21.35;38.33;100339.25;21086879;28;20089;-67
2023/03/02 20:18:51;;;;;;;18.65;4.20;;;;;;;21.37;38.24;100389.91;21071033;28;20455;-67
2023/03/02 20:28:55;;;;;;;9.18;4.10;;;;;;;21.36;38.08;100369.59;21065488;28;20516;-69
2023/03/02 20:39:03;;;;;;;9.93;3.92;;;;;;;21.33;38.36;100394.41;21077264;28;20086;-69
2023/03/02 20:49:08;;;;;;;6.05;3.47;;;;;;;21.38;38.48;100399.91;21077592;28;20457;-69
2023/03/02 20:59:13;;;;;;;5.82;3.50;;;;;;;21.43;38.25;100424.88;21063774;28;20395;-69
2023/03/02 21:09:16;;;;;;;6.15;2.97;;;;;;;21.52;37.96;100439.81;21080908;28;20036;-68
2023/03/02 21:19:19;;;;;;;7.93;3.78;;;;;;;21.53;37.83;100453.47;21078935;28;20048;-68
2023/03/02 21:29:22;;;;;;;5.18;3.30;;;;;;;21.62;38.08;100472.25;21071955;28;20040;-67
2023/03/02 21:39:24;;;;;;;6.70;3.10;;;;;;;21.65;37.75;100489.22;21081800;28;20036;-67
2023/03/02 21:49:26;;;;;;;4.68;2.90;;;;;;;21.71;37.60;100515.03;21081774;28;20085;-67
2023/03/02 21:59:29;;;;;;;6.68;3.50;;;;;;;21.75;37.57;100522.50;21080224;28;20441;-67
2023/03/02 22:09:30;;;;;;;4.20;2.80;;;;;;;21.63;37.45;100522.13;21079706;28;20047;-67
2023/03/02 22:19:35;;;;;;;5.07;3.00;;;;;;;21.80;37.74;100547.50;21060682;28;20117;-68
2023/03/02 22:29:49;;;;;;;3.58;2.55;;;;;;;21.80;37.79;100564.22;21079336;28;20028;-67
2023/03/02 22:40:01;;;;;;;3.78;3.10;;;;;;;21.75;37.42;100582.94;21077371;28;20044;-68
2023/03/02 22:50:19;;;;;;;4.32;2.50;;;;;;;21.81;37.47;100590.16;21077931;28;20028;-66
2023/03/02 23:00:38;;;;;;;3.00;2.70;;;;;;;21.79;37.29;100612.69;21076539;28;20415;-66
2023/03/02 23:10:40;;;;;;;5.23;2.57;;;;;;;21.83;37.67;100629.66;21074046;28;20105;-67
2023/03/02 23:20:42;;;;;;;2.63;2.22;;;;;;;21.83;37.51;100643.59;21075446;28;20055;-67
2023/03/02 23:30:44;;;;;;;3.13;2.53;;;;;;;21.78;37.25;100660.34;21076132;28;20032;-68
2023/03/02 23:40:48;;;;;;;2.85;2.53;;;;;;;21.79;37.44;100668.41;21070927;28;20865;-72
2023/03/02 23:50:49;;;;;;;3.45;2.42;;;;;;;21.78;37.50;100697.38;21056037;28;20368;-67
